createdAt,value
2019-02-10T00:00:00.730Z,8.00
2019-02-10T00:00:39.450Z,8.00
2019-02-10T00:01:15.804Z,8.00
2019-02-10T00:01:50.375Z,8.00
2019-02-10T00:02:24.841Z,8.00
2019-02-10T00:02:59.497Z,8.00
2019-02-10T00:03:34.093Z,8.00
2019-02-10T00:04:08.632Z,8.00
2019-02-10T00:04:43.117Z,8.00
2019-02-10T00:05:17.568Z,8.00
2019-02-10T00:05:52.028Z,8.00
2019-02-10T00:06:26.689Z,8.00
2019-02-10T00:07:01.154Z,8.00
2019-02-10T00:07:35.642Z,8.00
2019-02-10T00:08:10.276Z,8.00
2019-02-10T00:08:44.835Z,7.90
2019-02-10T00:09:19.360Z,7.90
2019-02-10T00:09:53.874Z,7.90
2019-02-10T00:10:28.317Z,7.90
2019-02-10T00:11:02.773Z,7.90
2019-02-10T00:11:37.223Z,7.90
2019-02-10T00:12:11.674Z,7.90
2019-02-10T00:13:20.823Z,7.90
2019-02-10T00:13:55.324Z,7.90
2019-02-10T00:14:29.845Z,7.90
2019-02-10T00:15:05.868Z,7.90
2019-02-10T00:15:40.318Z,7.90
2019-02-10T00:16:16.430Z,7.80
2019-02-10T00:16:50.876Z,7.90
2019-02-10T00:17:25.332Z,7.90
2019-02-10T00:17:59.800Z,7.90
2019-02-10T00:18:34.338Z,7.90
2019-02-10T00:19:08.929Z,7.90
2019-02-10T00:19:43.416Z,7.90
2019-02-10T00:20:17.903Z,7.90
2019-02-10T00:20:52.403Z,7.90
2019-02-10T00:21:27.099Z,7.90
2019-02-10T00:22:01.616Z,7.90
2019-02-10T00:22:36.082Z,7.90
2019-02-10T00:23:10.538Z,7.90
2019-02-10T00:23:45.078Z,7.90
2019-02-10T00:24:19.536Z,7.90
2019-02-10T00:24:54.041Z,7.90
2019-02-10T00:25:28.799Z,7.90
2019-02-10T00:26:03.292Z,7.90
2019-02-10T00:26:37.822Z,7.90
2019-02-10T00:27:12.315Z,7.90
2019-02-10T00:27:46.776Z,7.80
2019-02-10T00:28:21.320Z,7.90
2019-02-10T00:28:55.792Z,7.80
2019-02-10T00:29:30.634Z,7.80
2019-02-10T00:30:05.799Z,7.80
2019-02-10T00:30:40.246Z,7.80
2019-02-10T00:31:14.733Z,7.80
2019-02-10T00:31:49.210Z,7.80
2019-02-10T00:32:23.683Z,7.80
2019-02-10T00:32:58.136Z,7.80
2019-02-10T00:33:32.606Z,7.80
2019-02-10T00:34:07.123Z,7.80
2019-02-10T00:34:41.580Z,7.80
2019-02-10T00:35:16.105Z,7.80
2019-02-10T00:35:50.630Z,7.80
2019-02-10T00:36:32.653Z,7.80
2019-02-10T00:37:01.270Z,7.80
2019-02-10T00:37:35.743Z,7.70
2019-02-10T00:38:10.227Z,7.80
2019-02-10T00:38:44.742Z,7.80
2019-02-10T00:39:19.299Z,7.80
2019-02-10T00:39:53.836Z,7.80
2019-02-10T00:40:28.411Z,7.80
2019-02-10T00:41:03.011Z,7.80
2019-02-10T00:41:37.546Z,7.80
2019-02-10T00:42:12.094Z,7.80
2019-02-10T00:42:46.571Z,7.80
2019-02-10T00:43:21.311Z,7.80
2019-02-10T00:43:55.874Z,7.80
2019-02-10T00:44:30.434Z,7.80
2019-02-10T00:45:05.643Z,7.80
2019-02-10T00:45:40.099Z,7.70
2019-02-10T00:46:15.096Z,7.70
2019-02-10T00:46:49.550Z,7.80
2019-02-10T00:47:24.014Z,7.80
2019-02-10T00:47:58.545Z,7.80
2019-02-10T00:48:33.237Z,7.80
2019-02-10T00:49:07.777Z,7.80
2019-02-10T00:49:42.322Z,7.70
2019-02-10T00:50:16.783Z,7.70
2019-02-10T00:50:51.653Z,7.70
2019-02-10T00:51:26.113Z,7.70
2019-02-10T00:52:00.629Z,7.70
2019-02-10T00:52:35.166Z,7.70
2019-02-10T00:53:09.617Z,7.70
2019-02-10T00:53:44.097Z,7.70
2019-02-10T00:54:18.554Z,7.70
2019-02-10T00:54:53.051Z,7.80
2019-02-10T00:55:27.588Z,7.80
2019-02-10T00:56:02.121Z,7.80
2019-02-10T00:56:36.704Z,7.80
2019-02-10T00:57:11.185Z,7.80
2019-02-10T00:57:45.777Z,7.80
2019-02-10T00:58:20.230Z,7.80
2019-02-10T00:58:54.685Z,7.80
2019-02-10T00:59:29.174Z,7.80
2019-02-10T01:00:04.977Z,7.80
2019-02-10T01:00:39.618Z,7.80
2019-02-10T01:01:14.121Z,7.80
2019-02-10T01:01:48.701Z,7.70
2019-02-10T01:02:23.174Z,7.80
2019-02-10T01:02:57.721Z,7.70
2019-02-10T01:03:32.189Z,7.70
2019-02-10T01:04:06.744Z,7.70
2019-02-10T01:04:41.390Z,7.70
2019-02-10T01:05:15.966Z,7.70
2019-02-10T01:05:50.555Z,7.80
2019-02-10T01:06:25.292Z,7.70
2019-02-10T01:06:59.879Z,7.70
2019-02-10T01:07:34.402Z,7.70
2019-02-10T01:08:09.078Z,7.70
2019-02-10T01:08:43.533Z,7.70
2019-02-10T01:09:18.071Z,7.70
2019-02-10T01:09:52.551Z,7.70
2019-02-10T01:10:27.110Z,7.70
2019-02-10T01:11:01.625Z,7.70
2019-02-10T01:11:36.082Z,7.70
2019-02-10T01:12:10.652Z,7.70
2019-02-10T01:12:45.277Z,7.70
2019-02-10T01:13:19.854Z,7.70
2019-02-10T01:13:54.438Z,7.70
2019-02-10T01:15:22.703Z,7.70
2019-02-10T01:15:57.319Z,7.70
2019-02-10T01:16:32.102Z,7.60
2019-02-10T01:17:06.566Z,7.60
2019-02-10T01:17:41.041Z,7.60
2019-02-10T01:18:15.500Z,7.50
2019-02-10T01:19:06.658Z,7.50
2019-02-10T01:19:41.131Z,7.50
2019-02-10T01:20:15.682Z,7.50
2019-02-10T01:20:50.128Z,7.50
2019-02-10T01:21:24.590Z,7.50
2019-02-10T01:21:59.038Z,7.50
2019-02-10T01:22:33.503Z,7.50
2019-02-10T01:23:08.054Z,7.50
2019-02-10T01:23:42.501Z,7.50
2019-02-10T01:24:16.964Z,7.50
2019-02-10T01:24:51.413Z,7.50
2019-02-10T01:25:25.947Z,7.50
2019-02-10T01:26:01.470Z,7.40
2019-02-10T01:26:36.227Z,7.40
2019-02-10T01:27:10.770Z,7.40
2019-02-10T01:27:45.321Z,7.40
2019-02-10T01:28:19.808Z,7.40
2019-02-10T01:28:54.323Z,7.30
2019-02-10T01:29:28.879Z,7.30
2019-02-10T01:30:06.733Z,7.30
2019-02-10T01:30:43.418Z,7.30
2019-02-10T01:31:17.871Z,7.30
2019-02-10T01:31:52.347Z,7.20
2019-02-10T01:32:26.901Z,7.20
2019-02-10T01:33:01.347Z,7.20
2019-02-10T01:33:35.805Z,7.20
2019-02-10T01:34:10.343Z,7.20
2019-02-10T01:34:44.815Z,7.20
2019-02-10T01:35:19.266Z,7.10
2019-02-10T01:35:53.742Z,7.10
2019-02-10T01:36:28.231Z,7.10
2019-02-10T01:37:02.741Z,7.10
2019-02-10T01:37:37.298Z,7.00
2019-02-10T01:38:11.844Z,7.00
2019-02-10T01:38:46.649Z,7.00
2019-02-10T01:39:21.663Z,7.00
2019-02-10T01:39:56.320Z,7.00
2019-02-10T01:40:30.907Z,6.90
2019-02-10T01:41:05.483Z,6.90
2019-02-10T01:41:40.083Z,6.90
2019-02-10T01:42:14.583Z,6.80
2019-02-10T01:42:49.037Z,6.80
2019-02-10T01:43:23.561Z,6.80
2019-02-10T01:43:58.235Z,6.70
2019-02-10T01:44:32.758Z,6.80
2019-02-10T01:45:09.897Z,6.80
2019-02-10T01:45:44.399Z,6.80
2019-02-10T01:46:18.885Z,6.80
2019-02-10T01:46:53.396Z,6.80
2019-02-10T01:47:28.130Z,6.80
2019-02-10T01:48:02.657Z,6.80
2019-02-10T01:48:37.292Z,6.80
2019-02-10T01:49:14.580Z,6.80
2019-02-10T01:49:49.045Z,6.70
2019-02-10T01:50:23.518Z,6.70
2019-02-10T01:50:58.057Z,6.70
2019-02-10T01:51:32.510Z,6.70
2019-02-10T01:52:06.984Z,6.70
2019-02-10T01:52:41.497Z,6.70
2019-02-10T01:53:16.034Z,6.70
2019-02-10T01:53:50.507Z,6.60
2019-02-10T01:54:24.961Z,6.60
2019-02-10T01:54:59.386Z,6.60
2019-02-10T01:55:34.001Z,6.60
2019-02-10T01:56:08.492Z,6.60
2019-02-10T01:56:43.020Z,6.60
2019-02-10T01:57:17.493Z,6.60
2019-02-10T01:57:52.291Z,6.60
2019-02-10T01:59:20.568Z,6.50
2019-02-10T02:00:48.750Z,6.50
2019-02-10T02:01:23.277Z,6.50
2019-02-10T02:01:57.748Z,6.50
2019-02-10T02:02:32.244Z,6.50
2019-02-10T02:03:06.772Z,6.40
2019-02-10T02:03:41.343Z,6.40
2019-02-10T02:04:15.905Z,6.40
2019-02-10T02:04:50.448Z,6.40
2019-02-10T02:05:25.125Z,6.40
2019-02-10T02:05:59.596Z,6.40
2019-02-10T02:06:34.053Z,6.40
2019-02-10T02:07:08.784Z,6.40
2019-02-10T02:07:43.268Z,6.40
2019-02-10T02:08:17.709Z,6.40
2019-02-10T02:08:52.242Z,6.40
2019-02-10T02:09:26.873Z,6.40
2019-02-10T02:10:21.001Z,6.40
2019-02-10T02:10:55.452Z,6.40
2019-02-10T02:11:29.971Z,6.40
2019-02-10T02:12:04.761Z,6.40
2019-02-10T02:12:39.223Z,6.30
2019-02-10T02:13:13.716Z,6.30
2019-02-10T02:13:48.245Z,6.30
2019-02-10T02:14:22.805Z,6.30
2019-02-10T02:14:57.871Z,6.40
2019-02-10T02:15:32.377Z,6.40
2019-02-10T02:16:06.904Z,6.40
2019-02-10T02:16:41.361Z,6.40
2019-02-10T02:17:15.815Z,6.40
2019-02-10T02:17:50.286Z,6.40
2019-02-10T02:18:24.740Z,6.40
2019-02-10T02:18:59.199Z,6.40
2019-02-10T02:19:33.799Z,6.40
2019-02-10T02:20:09.814Z,6.30
2019-02-10T02:20:44.325Z,6.40
2019-02-10T02:21:18.794Z,6.30
2019-02-10T02:21:53.245Z,6.30
2019-02-10T02:22:27.800Z,6.30
2019-02-10T02:23:02.253Z,6.30
2019-02-10T02:23:36.790Z,6.30
2019-02-10T02:24:11.257Z,6.30
2019-02-10T02:24:45.777Z,6.30
2019-02-10T02:25:20.886Z,6.30
2019-02-10T02:25:55.633Z,6.30
2019-02-10T02:26:30.114Z,6.30
2019-02-10T02:27:04.645Z,6.30
2019-02-10T02:27:39.275Z,6.30
2019-02-10T02:28:13.791Z,6.30
2019-02-10T02:28:48.311Z,6.30
2019-02-10T02:29:22.784Z,6.20
2019-02-10T02:29:57.325Z,6.30
2019-02-10T02:30:31.833Z,6.30
2019-02-10T02:31:06.280Z,6.30
2019-02-10T02:32:34.762Z,6.30
2019-02-10T02:33:39.096Z,6.30
2019-02-10T02:34:13.617Z,6.20
2019-02-10T02:34:48.077Z,6.20
2019-02-10T02:35:22.693Z,6.20
2019-02-10T02:35:57.158Z,6.20
2019-02-10T02:36:33.870Z,6.20
2019-02-10T02:37:09.379Z,6.20
2019-02-10T02:37:43.831Z,6.20
2019-02-10T02:38:18.300Z,6.20
2019-02-10T02:38:52.945Z,6.20
2019-02-10T02:39:27.397Z,6.20
2019-02-10T02:40:01.850Z,6.10
2019-02-10T02:40:36.324Z,6.10
2019-02-10T02:41:10.762Z,6.10
2019-02-10T02:41:45.233Z,6.10
2019-02-10T02:42:19.695Z,6.10
2019-02-10T02:42:54.178Z,6.10
2019-02-10T02:43:29.040Z,6.10
2019-02-10T02:44:03.612Z,6.10
2019-02-10T02:44:38.062Z,6.10
2019-02-10T02:45:12.701Z,6.00
2019-02-10T02:45:47.161Z,6.00
2019-02-10T02:46:21.622Z,6.00
2019-02-10T02:46:56.101Z,6.00
2019-02-10T02:47:30.560Z,6.00
2019-02-10T02:48:05.024Z,6.00
2019-02-10T02:48:39.551Z,5.90
2019-02-10T02:49:14.003Z,5.90
2019-02-10T02:49:48.469Z,5.90
2019-02-10T02:50:22.920Z,5.80
2019-02-10T02:50:57.384Z,5.90
2019-02-10T02:51:31.856Z,5.90
2019-02-10T02:52:06.296Z,5.90
2019-02-10T02:52:40.986Z,5.90
2019-02-10T02:53:15.550Z,5.90
2019-02-10T02:53:50.083Z,5.90
2019-02-10T02:54:24.606Z,6.00
2019-02-10T02:54:59.064Z,5.90
2019-02-10T02:55:33.537Z,5.90
2019-02-10T02:56:08.030Z,5.90
2019-02-10T02:56:42.541Z,5.90
2019-02-10T02:57:16.999Z,5.90
2019-02-10T02:57:51.462Z,5.90
2019-02-10T02:58:25.916Z,5.90
2019-02-10T02:59:00.394Z,5.90
2019-02-10T02:59:34.988Z,5.90
2019-02-10T03:00:12.719Z,6.00
2019-02-10T03:00:47.238Z,6.00
2019-02-10T03:01:21.716Z,6.00
2019-02-10T03:01:56.220Z,6.00
2019-02-10T03:02:30.679Z,6.10
2019-02-10T03:03:05.307Z,6.10
2019-02-10T03:03:39.801Z,6.10
2019-02-10T03:04:14.293Z,6.10
2019-02-10T03:04:48.827Z,6.10
2019-02-10T03:05:23.297Z,6.10
2019-02-10T03:05:57.780Z,6.10
2019-02-10T03:06:33.882Z,6.00
2019-02-10T03:07:17.567Z,6.00
2019-02-10T03:07:44.598Z,6.10
2019-02-10T03:08:19.065Z,6.00
2019-02-10T03:08:53.527Z,6.00
2019-02-10T03:09:28.030Z,6.00
2019-02-10T03:10:02.604Z,6.00
2019-02-10T03:10:37.054Z,6.00
2019-02-10T03:11:11.525Z,5.90
2019-02-10T03:11:46.156Z,5.90
2019-02-10T03:12:20.615Z,6.00
2019-02-10T03:12:55.075Z,6.00
2019-02-10T03:13:29.546Z,6.00
2019-02-10T03:14:05.627Z,6.00
2019-02-10T03:14:40.090Z,6.00
2019-02-10T03:15:14.614Z,6.00
2019-02-10T03:15:49.078Z,6.10
2019-02-10T03:16:23.600Z,6.00
2019-02-10T03:16:58.072Z,6.00
2019-02-10T03:17:32.504Z,6.00
2019-02-10T03:18:06.978Z,6.00
2019-02-10T03:18:41.457Z,6.00
2019-02-10T03:19:15.923Z,6.00
2019-02-10T03:19:50.387Z,6.00
2019-02-10T03:20:24.949Z,6.00
2019-02-10T03:20:59.394Z,6.00
2019-02-10T03:21:33.862Z,6.00
2019-02-10T03:22:08.549Z,6.00
2019-02-10T03:22:43.060Z,6.00
2019-02-10T03:23:17.631Z,6.00
2019-02-10T03:23:52.070Z,6.00
2019-02-10T03:24:26.576Z,6.00
2019-02-10T03:25:01.022Z,6.00
2019-02-10T03:25:35.485Z,6.00
2019-02-10T03:26:09.969Z,6.00
2019-02-10T03:26:44.419Z,6.00
2019-02-10T03:27:18.919Z,5.90
2019-02-10T03:27:53.679Z,5.90
2019-02-10T03:28:28.148Z,6.00
2019-02-10T03:29:02.608Z,5.90
2019-02-10T03:29:37.046Z,5.90
2019-02-10T03:30:12.167Z,5.90
2019-02-10T03:30:46.634Z,5.90
2019-02-10T03:31:21.163Z,5.90
2019-02-10T03:31:55.602Z,5.90
2019-02-10T03:32:30.229Z,5.90
2019-02-10T03:33:04.713Z,6.00
2019-02-10T03:33:39.172Z,6.00
2019-02-10T03:34:13.693Z,6.10
2019-02-10T03:34:48.241Z,6.10
2019-02-10T03:35:22.712Z,6.10
2019-02-10T03:35:57.197Z,6.10
2019-02-10T03:36:31.667Z,6.10
2019-02-10T03:37:06.274Z,6.10
2019-02-10T03:37:40.828Z,6.10
2019-02-10T03:38:15.314Z,6.20
2019-02-10T03:38:49.794Z,6.20
2019-02-10T03:39:39.126Z,6.20
2019-02-10T03:40:13.791Z,6.20
2019-02-10T03:40:48.308Z,6.10
2019-02-10T03:41:22.890Z,6.10
2019-02-10T03:41:57.396Z,6.10
2019-02-10T03:42:31.851Z,6.10
2019-02-10T03:43:06.374Z,6.10
2019-02-10T03:43:40.844Z,6.20
2019-02-10T03:44:15.305Z,6.20
2019-02-10T03:44:49.771Z,6.20
2019-02-10T03:45:43.925Z,6.20
2019-02-10T03:46:18.368Z,6.20
2019-02-10T03:46:52.837Z,6.20
2019-02-10T03:47:27.362Z,6.20
2019-02-10T03:48:02.051Z,6.30
2019-02-10T03:48:36.510Z,6.20
2019-02-10T03:49:10.974Z,6.30
2019-02-10T03:49:45.427Z,6.20
2019-02-10T03:50:19.879Z,6.20
2019-02-10T03:50:54.343Z,6.20
2019-02-10T03:51:28.802Z,6.30
2019-02-10T03:52:04.769Z,6.30
2019-02-10T03:52:39.304Z,6.30
2019-02-10T03:53:13.767Z,6.30
2019-02-10T03:53:48.348Z,6.30
2019-02-10T03:54:22.875Z,6.30
2019-02-10T03:54:57.327Z,6.30
2019-02-10T03:55:31.844Z,6.40
2019-02-10T03:56:06.302Z,6.40
2019-02-10T03:56:40.855Z,6.30
2019-02-10T03:57:15.296Z,6.40
2019-02-10T03:57:49.757Z,6.30
2019-02-10T03:58:24.292Z,6.30
2019-02-10T03:58:59.083Z,6.40
2019-02-10T03:59:33.767Z,6.30
2019-02-10T04:00:14.247Z,6.30
2019-02-10T04:00:48.762Z,6.30
2019-02-10T04:01:23.210Z,6.30
2019-02-10T04:01:57.674Z,6.30
2019-02-10T04:02:32.390Z,6.30
2019-02-10T04:03:06.839Z,6.30
2019-02-10T04:03:41.287Z,6.30
2019-02-10T04:04:15.771Z,6.30
2019-02-10T04:04:50.254Z,6.30
2019-02-10T04:05:24.712Z,6.30
2019-02-10T04:05:59.348Z,6.30
2019-02-10T04:06:33.805Z,6.30
2019-02-10T04:07:08.292Z,6.40
2019-02-10T04:07:42.791Z,6.40
2019-02-10T04:08:17.249Z,6.40
2019-02-10T04:08:51.714Z,6.30
2019-02-10T04:09:26.235Z,6.30
2019-02-10T04:10:00.706Z,6.30
2019-02-10T04:10:35.164Z,6.30
2019-02-10T04:11:10.058Z,6.30
2019-02-10T04:11:44.493Z,6.30
2019-02-10T04:12:18.965Z,6.30
2019-02-10T04:13:29.353Z,6.30
2019-02-10T04:14:03.929Z,6.30
2019-02-10T04:14:38.623Z,6.20
2019-02-10T04:15:13.145Z,6.20
2019-02-10T04:15:47.600Z,6.20
2019-02-10T04:16:22.063Z,6.10
2019-02-10T04:16:58.873Z,6.10
2019-02-10T04:17:33.334Z,6.10
2019-02-10T04:18:07.800Z,6.00
2019-02-10T04:18:42.496Z,6.00
2019-02-10T04:19:16.954Z,6.10
2019-02-10T04:19:51.406Z,6.10
2019-02-10T04:20:25.886Z,6.10
2019-02-10T04:21:00.337Z,6.20
2019-02-10T04:21:34.836Z,6.20
2019-02-10T04:22:09.316Z,6.20
2019-02-10T04:22:45.041Z,6.30
2019-02-10T04:23:19.564Z,6.30
2019-02-10T04:23:54.041Z,6.30
2019-02-10T04:24:28.761Z,6.40
2019-02-10T04:25:03.244Z,6.40
2019-02-10T04:25:37.772Z,6.40
2019-02-10T04:26:12.684Z,6.40
2019-02-10T04:26:47.138Z,6.40
2019-02-10T04:27:21.785Z,6.40
2019-02-10T04:27:56.236Z,6.40
2019-02-10T04:28:30.944Z,6.40
2019-02-10T04:29:05.480Z,6.50
2019-02-10T04:29:39.934Z,6.40
2019-02-10T04:30:14.392Z,6.40
2019-02-10T04:30:48.905Z,6.40
2019-02-10T04:31:23.414Z,6.40
2019-02-10T04:31:57.947Z,6.50
2019-02-10T04:32:32.404Z,6.40
2019-02-10T04:33:06.875Z,6.50
2019-02-10T04:33:41.334Z,6.50
2019-02-10T04:34:15.805Z,6.50
2019-02-10T04:34:50.284Z,6.40
2019-02-10T04:35:24.761Z,6.40
2019-02-10T04:35:59.301Z,6.40
2019-02-10T04:36:33.838Z,6.40
2019-02-10T04:37:08.297Z,6.50
2019-02-10T04:38:36.595Z,6.40
2019-02-10T04:39:11.053Z,6.40
2019-02-10T04:39:45.519Z,6.40
2019-02-10T04:40:20.038Z,6.40
2019-02-10T04:40:55.912Z,6.40
2019-02-10T04:41:30.418Z,6.50
2019-02-10T04:42:04.884Z,6.50
2019-02-10T04:42:39.338Z,6.50
2019-02-10T04:43:13.778Z,6.50
2019-02-10T04:43:48.239Z,6.50
2019-02-10T04:44:22.704Z,6.50
2019-02-10T04:44:57.153Z,6.50
2019-02-10T04:45:31.606Z,6.50
2019-02-10T04:46:06.077Z,6.50
2019-02-10T04:46:40.527Z,6.50
2019-02-10T04:47:15.009Z,6.50
2019-02-10T04:47:55.529Z,6.50
2019-02-10T04:48:30.015Z,6.50
2019-02-10T04:49:04.480Z,6.50
2019-02-10T04:49:38.923Z,6.50
2019-02-10T04:50:13.393Z,6.50
2019-02-10T04:50:47.838Z,6.50
2019-02-10T04:51:22.303Z,6.50
2019-02-10T04:51:56.828Z,6.50
2019-02-10T04:52:31.289Z,6.50
2019-02-10T04:53:05.763Z,6.50
2019-02-10T04:53:40.290Z,6.50
2019-02-10T04:54:14.987Z,6.50
2019-02-10T04:54:49.531Z,6.50
2019-02-10T04:55:24.031Z,6.40
2019-02-10T04:56:10.032Z,6.40
2019-02-10T04:56:44.479Z,6.40
2019-02-10T04:57:18.930Z,6.40
2019-02-10T04:57:53.397Z,6.40
2019-02-10T04:58:27.901Z,6.40
2019-02-10T04:59:02.366Z,6.40
2019-02-10T04:59:36.916Z,6.40
2019-02-10T05:00:11.456Z,6.40
2019-02-10T05:00:45.906Z,6.40
2019-02-10T05:01:20.384Z,6.40
2019-02-10T05:01:54.824Z,6.40
2019-02-10T05:02:29.285Z,6.40
2019-02-10T05:03:03.746Z,6.40
2019-02-10T05:03:38.291Z,6.40
2019-02-10T05:04:12.806Z,6.40
2019-02-10T05:04:47.253Z,6.40
2019-02-10T05:05:21.704Z,6.40
2019-02-10T05:05:56.159Z,6.50
2019-02-10T05:06:30.623Z,6.50
2019-02-10T05:07:05.095Z,6.50
2019-02-10T05:07:39.616Z,6.50
2019-02-10T05:08:14.063Z,6.50
2019-02-10T05:08:48.539Z,6.50
2019-02-10T05:09:22.991Z,6.50
2019-02-10T05:09:57.443Z,6.50
2019-02-10T05:10:31.903Z,6.60
2019-02-10T05:11:06.390Z,6.60
2019-02-10T05:11:40.884Z,6.60
2019-02-10T05:12:30.155Z,6.60
2019-02-10T05:13:04.599Z,6.60
2019-02-10T05:13:39.070Z,6.60
2019-02-10T05:14:13.510Z,6.60
2019-02-10T05:14:47.984Z,6.60
2019-02-10T05:15:22.454Z,6.60
2019-02-10T05:15:59.834Z,6.60
2019-02-10T05:16:34.295Z,6.60
2019-02-10T05:17:08.757Z,6.60
2019-02-10T05:17:43.301Z,6.60
2019-02-10T05:18:17.736Z,6.60
2019-02-10T05:18:52.187Z,6.50
2019-02-10T05:19:26.685Z,6.50
2019-02-10T05:20:01.175Z,6.50
2019-02-10T05:20:36.606Z,6.50
2019-02-10T05:21:11.111Z,6.50
2019-02-10T05:21:45.562Z,6.50
2019-02-10T05:22:20.027Z,6.50
2019-02-10T05:22:54.502Z,6.60
2019-02-10T05:23:29.007Z,6.50
2019-02-10T05:24:03.967Z,6.50
2019-02-10T05:24:38.513Z,6.50
2019-02-10T05:25:12.971Z,6.50
2019-02-10T05:25:47.431Z,6.40
2019-02-10T05:26:22.123Z,6.40
2019-02-10T05:26:56.578Z,6.40
2019-02-10T05:27:31.332Z,6.40
2019-02-10T05:28:05.846Z,6.40
2019-02-10T05:28:40.294Z,6.40
2019-02-10T05:29:14.747Z,6.40
2019-02-10T05:29:49.199Z,6.40
2019-02-10T05:30:23.658Z,6.40
2019-02-10T05:30:58.122Z,6.40
2019-02-10T05:31:32.639Z,6.40
2019-02-10T05:32:07.089Z,6.40
2019-02-10T05:32:41.550Z,6.40
2019-02-10T05:33:16.015Z,6.40
2019-02-10T05:33:50.454Z,6.40
2019-02-10T05:34:24.917Z,6.40
2019-02-10T05:34:59.361Z,6.40
2019-02-10T05:35:33.822Z,6.50
2019-02-10T05:36:08.275Z,6.50
2019-02-10T05:36:42.795Z,6.50
2019-02-10T05:37:17.251Z,6.50
2019-02-10T05:37:51.689Z,6.50
2019-02-10T05:38:26.234Z,6.50
2019-02-10T05:39:00.957Z,6.50
2019-02-10T05:39:35.413Z,6.50
2019-02-10T05:40:09.854Z,6.50
2019-02-10T05:40:44.304Z,6.50
2019-02-10T05:41:18.837Z,6.50
2019-02-10T05:41:53.294Z,6.50
2019-02-10T05:42:27.747Z,6.50
2019-02-10T05:43:02.217Z,6.50
2019-02-10T05:43:36.746Z,6.60
2019-02-10T05:44:11.190Z,6.50
2019-02-10T05:44:45.667Z,6.50
2019-02-10T05:45:20.125Z,6.50
2019-02-10T05:45:54.604Z,6.50
2019-02-10T05:46:29.194Z,6.50
2019-02-10T05:47:03.636Z,6.50
2019-02-10T05:47:38.136Z,6.50
2019-02-10T05:48:12.882Z,6.60
2019-02-10T05:48:47.343Z,6.60
2019-02-10T05:49:21.791Z,6.60
2019-02-10T05:49:56.243Z,6.60
2019-02-10T05:50:30.689Z,6.60
2019-02-10T05:51:05.199Z,6.60
2019-02-10T05:51:39.653Z,6.60
2019-02-10T05:52:14.127Z,6.50
2019-02-10T05:52:48.579Z,6.50
2019-02-10T05:53:23.059Z,6.50
2019-02-10T05:53:59.128Z,6.50
2019-02-10T05:54:33.603Z,6.50
2019-02-10T05:55:08.067Z,6.50
2019-02-10T05:55:42.554Z,6.50
2019-02-10T05:56:17.057Z,6.50
2019-02-10T05:56:51.507Z,6.50
2019-02-10T05:57:25.969Z,6.50
2019-02-10T05:58:00.429Z,6.50
2019-02-10T05:58:34.916Z,6.50
2019-02-10T05:59:09.353Z,6.50
2019-02-10T05:59:43.833Z,6.60
2019-02-10T06:00:18.302Z,6.50
2019-02-10T06:00:52.749Z,6.50
2019-02-10T06:01:55.694Z,6.50
2019-02-10T06:02:31.740Z,6.50
2019-02-10T06:03:06.261Z,6.50
2019-02-10T06:03:40.712Z,6.50
2019-02-10T06:04:15.164Z,6.50
2019-02-10T06:04:50.793Z,6.60
2019-02-10T06:05:25.245Z,6.50
2019-02-10T06:05:59.939Z,6.50
2019-02-10T06:06:34.391Z,6.50
2019-02-10T06:07:16.851Z,6.50
2019-02-10T06:07:51.515Z,6.40
2019-02-10T06:08:25.967Z,6.40
2019-02-10T06:09:00.434Z,6.40
2019-02-10T06:09:34.901Z,6.40
2019-02-10T06:10:09.583Z,6.40
2019-02-10T06:10:44.045Z,6.40
2019-02-10T06:11:18.520Z,6.40
2019-02-10T06:11:52.985Z,6.40
2019-02-10T06:12:27.424Z,6.40
2019-02-10T06:13:01.918Z,6.40
2019-02-10T06:13:36.404Z,6.40
2019-02-10T06:14:10.858Z,6.40
2019-02-10T06:14:45.298Z,6.40
2019-02-10T06:15:19.773Z,6.30
2019-02-10T06:15:54.237Z,6.30
2019-02-10T06:16:30.545Z,6.30
2019-02-10T06:17:05.918Z,6.30
2019-02-10T06:17:40.437Z,6.30
2019-02-10T06:18:14.889Z,6.30
2019-02-10T06:18:49.348Z,6.30
2019-02-10T06:19:23.788Z,6.20
2019-02-10T06:19:58.274Z,6.20
2019-02-10T06:20:32.729Z,6.20
2019-02-10T06:21:07.190Z,6.20
2019-02-10T06:21:41.657Z,6.20
2019-02-10T06:22:16.106Z,6.20
2019-02-10T06:22:50.566Z,6.20
2019-02-10T06:23:25.028Z,6.20
2019-02-10T06:23:59.499Z,6.20
2019-02-10T06:24:33.957Z,6.20
2019-02-10T06:25:09.036Z,6.20
2019-02-10T06:25:44.050Z,6.30
2019-02-10T06:26:18.501Z,6.30
2019-02-10T06:26:53.166Z,6.30
2019-02-10T06:27:27.642Z,6.30
2019-02-10T06:28:02.139Z,6.30
2019-02-10T06:28:36.589Z,6.20
2019-02-10T06:29:11.048Z,6.20
2019-02-10T06:29:45.602Z,6.20
2019-02-10T06:30:20.043Z,6.20
2019-02-10T06:30:54.494Z,6.20
2019-02-10T06:31:29.252Z,6.20
2019-02-10T06:32:03.849Z,6.20
2019-02-10T06:32:38.385Z,6.10
2019-02-10T06:33:12.849Z,6.10
2019-02-10T06:33:47.312Z,6.10
2019-02-10T06:34:22.201Z,6.10
2019-02-10T06:34:56.660Z,6.10
2019-02-10T06:35:31.158Z,6.10
2019-02-10T06:36:05.617Z,6.10
2019-02-10T06:36:40.152Z,6.10
2019-02-10T06:37:14.609Z,6.10
2019-02-10T06:37:49.090Z,6.10
2019-02-10T06:38:23.526Z,6.10
2019-02-10T06:38:57.986Z,6.10
2019-02-10T06:39:32.487Z,6.10
2019-02-10T06:40:08.507Z,6.20
2019-02-10T06:40:43.082Z,6.20
2019-02-10T06:41:17.541Z,6.20
2019-02-10T06:41:51.984Z,6.20
2019-02-10T06:42:27.194Z,6.20
2019-02-10T06:43:01.748Z,6.20
2019-02-10T06:43:36.268Z,6.30
2019-02-10T06:44:10.771Z,6.30
2019-02-10T06:44:45.210Z,6.20
2019-02-10T06:45:19.677Z,6.20
2019-02-10T06:45:54.391Z,6.20
2019-02-10T06:46:28.849Z,6.30
2019-02-10T06:47:03.346Z,6.30
2019-02-10T06:47:37.838Z,6.30
2019-02-10T06:48:12.287Z,6.30
2019-02-10T06:48:46.744Z,6.30
2019-02-10T06:49:21.193Z,6.20
2019-02-10T06:49:55.665Z,6.30
2019-02-10T06:50:30.130Z,6.30
2019-02-10T06:51:04.667Z,6.30
2019-02-10T06:51:39.144Z,6.30
2019-02-10T06:52:13.597Z,6.30
2019-02-10T06:52:48.114Z,6.20
2019-02-10T06:53:22.577Z,6.30
2019-02-10T06:53:57.033Z,6.30
2019-02-10T06:54:31.495Z,6.30
2019-02-10T06:55:08.078Z,6.40
2019-02-10T06:55:42.541Z,6.40
2019-02-10T06:56:16.997Z,6.40
2019-02-10T06:56:51.456Z,6.40
2019-02-10T06:57:25.978Z,6.30
2019-02-10T06:58:00.433Z,6.30
2019-02-10T06:58:34.881Z,6.30
2019-02-10T06:59:10.977Z,6.30
2019-02-10T06:59:49.769Z,6.40
2019-02-10T07:00:25.881Z,6.30
2019-02-10T07:01:01.974Z,6.40
2019-02-10T07:01:38.057Z,6.40
2019-02-10T07:02:30.528Z,6.40
2019-02-10T07:03:31.742Z,6.40
2019-02-10T07:04:12.174Z,6.50
2019-02-10T07:04:46.630Z,6.50
2019-02-10T07:05:21.087Z,6.50
2019-02-10T07:05:55.606Z,6.50
2019-02-10T07:06:30.097Z,6.50
2019-02-10T07:07:04.558Z,6.50
2019-02-10T07:07:39.019Z,6.60
2019-02-10T07:08:13.485Z,6.60
2019-02-10T07:08:47.945Z,6.50
2019-02-10T07:09:24.029Z,6.50
2019-02-10T07:09:58.479Z,6.50
2019-02-10T07:10:32.925Z,6.50
2019-02-10T07:11:07.511Z,6.50
2019-02-10T07:11:41.997Z,6.60
2019-02-10T07:12:47.139Z,6.60
2019-02-10T07:13:24.672Z,6.60
2019-02-10T07:13:59.974Z,6.60
2019-02-10T07:14:34.446Z,6.60
2019-02-10T07:15:11.991Z,6.50
2019-02-10T07:16:22.920Z,6.50
2019-02-10T07:17:06.192Z,6.50
2019-02-10T07:17:43.019Z,6.50
2019-02-10T07:18:29.272Z,6.50
2019-02-10T07:19:34.828Z,6.50
2019-02-10T07:20:34.773Z,6.50
2019-02-10T07:21:09.404Z,6.50
2019-02-10T07:21:44.139Z,6.40
2019-02-10T07:22:36.728Z,6.40
2019-02-10T07:23:47.005Z,6.50
2019-02-10T07:24:33.270Z,6.40
2019-02-10T07:25:13.573Z,6.40
2019-02-10T07:25:48.034Z,6.40
2019-02-10T07:26:24.302Z,6.40
2019-02-10T07:27:18.338Z,6.40
2019-02-10T07:28:04.670Z,6.40
2019-02-10T07:28:40.310Z,6.40
2019-02-10T07:29:17.854Z,6.40
2019-02-10T07:30:07.359Z,6.40
2019-02-10T07:30:44.880Z,6.50
2019-02-10T07:31:19.349Z,6.50
2019-02-10T07:31:53.816Z,6.50
2019-02-10T07:32:30.806Z,6.50
2019-02-10T07:33:07.727Z,6.50
2019-02-10T07:33:59.806Z,6.40
2019-02-10T07:34:47.745Z,6.50
2019-02-10T07:35:40.575Z,6.50
2019-02-10T07:36:23.867Z,6.50
2019-02-10T07:37:10.133Z,6.50
2019-02-10T07:37:47.666Z,6.50
2019-02-10T07:38:46.254Z,6.60
2019-02-10T07:39:38.674Z,6.60
2019-02-10T07:40:22.077Z,6.60
2019-02-10T07:41:32.503Z,6.50
2019-02-10T07:42:21.901Z,6.50
2019-02-10T07:43:11.288Z,6.50
2019-02-10T07:44:05.180Z,6.50
2019-02-10T07:45:00.243Z,6.40
2019-02-10T07:46:01.637Z,6.40
2019-02-10T07:46:57.009Z,6.40
2019-02-10T07:47:40.257Z,6.40
2019-02-10T07:48:35.390Z,6.40
2019-02-10T07:49:27.832Z,6.40
2019-02-10T07:50:11.012Z,6.50
2019-02-10T07:51:39.186Z,6.50
2019-02-10T07:53:07.663Z,6.50
2019-02-10T07:54:42.097Z,6.60
2019-02-10T07:55:30.472Z,6.70
2019-02-10T07:56:22.766Z,6.80
2019-02-10T07:57:33.225Z,6.80
2019-02-10T07:58:19.883Z,6.80
2019-02-10T07:59:00.970Z,6.90
2019-02-10T07:59:44.240Z,6.90
2019-02-10T08:00:30.477Z,6.90
2019-02-10T08:01:25.825Z,6.90
2019-02-10T08:02:54.121Z,6.90
2019-02-10T08:03:56.777Z,7.00
2019-02-10T08:04:55.046Z,7.00
2019-02-10T08:05:35.964Z,7.10
2019-02-10T08:06:37.250Z,7.20
2019-02-10T08:07:20.257Z,7.20